Rae — WDF3909 — position and weather

sailwx.info

Track history (hours):
 
Tides and Currents Weather Stations Pressure Air Temp Water Temp Dewpoint Dewpoint Depression Visibility Wind Speed Wind Dir Waves Ship Positions

Rae

Owner: Fox Marine Corporation, Easton, PA. More information available from US FCC via Universal Licensing System and Coast Guard Vessel Documentation Center.

Last reported at 2017-May-18 11:51 UTC. Time now 2017-May-25 14:09 UTC.
Position N 40°41' W 074°04'.

; draft 2 m.

Type: Fishing. MMSI: 367445510.

Date/timePositionNaut miles runAvg speedWind from/ knotsBaromVisibWave heightAir tempDewpointWater temp
2017-May-18 11:51N 40°41' W 074°04'2 5.3
2017-May-18 11:30N 40°41' W 074°02'4 7.8
2017-May-18 11:00N 40°44' W 073°58'5 8.7
2017-May-18 10:29N 40°48' W 073°55'3 6.7
2017-May-18 09:59N 40°48' W 073°50'2 0.3
2017-May-18 05:24N 40°48' W 073°48'2 5.8
2017-May-18 05:00N 40°48' W 073°51'3 6.2
2017-May-18 04:28N 40°47' W 073°55'3 6.9
2017-May-18 04:00N 40°44' W 073°58'3 5.8
2017-May-18 03:30N 40°42' W 074°00'  
Track history (hours):
 
Tides and Currents Weather Stations Pressure Air Temp Water Temp Dewpoint Dewpoint Depression Visibility Wind Speed Wind Dir Waves Ship Positions

Rae

Owner: Fox Marine Corporation, Easton, PA. More information available from US FCC via Universal Licensing System and Coast Guard Vessel Documentation Center.

Last reported at 2017-May-18 11:51 UTC. Time now 2017-May-25 14:09 UTC.
Position N 40°41' W 074°04'.

; draft 2 m.

Type: Fishing. MMSI: 367445510.

Date/timePositionNaut miles runAvg speedWind from/ knotsBaromVisibWave heightAir tempDewpointWater temp
2017-May-18 11:51N 40°41' W 074°04'2 5.3
2017-May-18 11:30N 40°41' W 074°02'4 7.8
2017-May-18 11:00N 40°44' W 073°58'5 8.7
2017-May-18 10:29N 40°48' W 073°55'3 6.7
2017-May-18 09:59N 40°48' W 073°50'2 0.3
2017-May-18 05:24N 40°48' W 073°48'2 5.8
2017-May-18 05:00N 40°48' W 073°51'3 6.2
2017-May-18 04:28N 40°47' W 073°55'3 6.9
2017-May-18 04:00N 40°44' W 073°58'3 5.8
2017-May-18 03:30N 40°42' W 074°00'  

Dump ship's entire track history